Terminal Aerodrome Forecast
Issued by NWS Riverton, WY

Home | Current Version | Previous Version | Text Only | Print | Product List | Glossary On
Versions: 1 2 3 4 5 6 7 8 9 10 11 12
000
FTUS45 KRIW 170500
TAFRIW
TAF
KRIW 170521Z 1706/1806 30011KT P6SM SCT120
     FM170900 28007KT P6SM SCT120
     FM171500 VRB05KT P6SM SCT120
     FM172300 28008G16KT P6SM VCSH BKN120
     FM180230 30009KT P6SM SCT120=

USA.gov is the U.S. government's official web portal to all federal, state and local government web resources and services.